createdAt,value
2019-01-06T00:02:49.463Z,6.50
2019-01-06T00:05:43.391Z,6.50
2019-01-06T00:08:46.292Z,6.50
2019-01-06T00:11:37.985Z,6.50
2019-01-06T00:14:17.274Z,6.50
2019-01-06T00:17:04.011Z,6.50
2019-01-06T00:20:07.242Z,6.60
2019-01-06T00:23:13.411Z,6.50
2019-01-06T00:26:07.477Z,6.50
2019-01-06T00:28:53.152Z,6.40
2019-01-06T00:31:49.999Z,6.40
2019-01-06T00:34:38.598Z,6.40
2019-01-06T00:37:26.859Z,6.40
2019-01-06T00:40:13.395Z,6.40
2019-01-06T00:43:11.342Z,6.40
2019-01-06T00:46:07.700Z,6.40
2019-01-06T00:48:49.640Z,6.40
2019-01-06T00:51:43.345Z,6.30
2019-01-06T00:54:35.481Z,6.20
2019-01-06T00:57:29.450Z,6.20
2019-01-06T01:00:23.624Z,6.20
2019-01-06T01:03:15.329Z,6.20
2019-01-06T01:06:06.465Z,6.20
2019-01-06T01:09:07.673Z,6.20
2019-01-06T01:12:07.638Z,6.10
2019-01-06T01:15:01.467Z,6.10
2019-01-06T01:17:47.947Z,6.20
2019-01-06T01:20:25.125Z,6.20
2019-01-06T01:23:04.017Z,6.10
2019-01-06T01:25:51.921Z,6.10
2019-01-06T01:28:38.414Z,6.10
2019-01-06T01:31:20.909Z,6.10
2019-01-06T01:34:07.783Z,6.10
2019-01-06T01:36:54.507Z,6.20
2019-01-06T01:39:42.302Z,6.20
2019-01-06T01:42:30.615Z,6.10
2019-01-06T01:45:30.694Z,6.10
2019-01-06T01:48:18.689Z,6.10
2019-01-06T01:51:05.126Z,6.00
2019-01-06T01:53:47.994Z,6.10
2019-01-06T01:56:41.838Z,6.10
2019-01-06T01:59:37.951Z,6.00
2019-01-06T02:02:35.086Z,6.10
2019-01-06T02:05:21.573Z,6.10
2019-01-06T02:08:19.026Z,6.10
2019-01-06T02:11:08.374Z,6.00
2019-01-06T02:13:45.569Z,6.00
2019-01-06T02:16:36.208Z,6.00
2019-01-06T02:19:22.710Z,6.00
2019-01-06T02:22:18.473Z,5.90
2019-01-06T02:25:04.915Z,6.00
2019-01-06T02:27:51.639Z,6.00
2019-01-06T02:30:39.671Z,6.00
2019-01-06T02:33:36.601Z,6.00
2019-01-06T02:36:36.785Z,6.00
2019-01-06T02:39:24.895Z,6.00
2019-01-06T02:42:16.001Z,5.90
2019-01-06T02:45:08.873Z,6.00
2019-01-06T02:47:55.528Z,6.10
2019-01-06T02:50:42.311Z,6.00
2019-01-06T02:53:36.619Z,6.10
2019-01-06T02:56:33.909Z,6.10
2019-01-06T02:59:39.514Z,6.10
2019-01-06T03:02:30.334Z,6.20
2019-01-06T03:05:27.523Z,6.20
2019-01-06T03:08:15.400Z,6.20
2019-01-06T03:11:02.288Z,6.10
2019-01-06T03:14:05.498Z,6.00
2019-01-06T03:16:52.173Z,6.10
2019-01-06T03:19:40.250Z,6.10
2019-01-06T03:22:28.270Z,6.20
2019-01-06T03:25:14.704Z,6.10
2019-01-06T03:28:01.386Z,6.10
2019-01-06T03:30:48.252Z,6.00
2019-01-06T03:33:34.901Z,6.00
2019-01-06T03:36:26.331Z,6.10
2019-01-06T03:39:26.639Z,6.10
2019-01-06T03:42:13.289Z,6.10
2019-01-06T03:44:59.916Z,6.10
2019-01-06T03:47:59.973Z,6.10
2019-01-06T03:50:56.855Z,6.10
2019-01-06T03:53:43.689Z,6.10
2019-01-06T03:56:46.866Z,6.20
2019-01-06T03:59:30.990Z,6.10
2019-01-06T04:02:18.853Z,6.20
2019-01-06T04:05:12.513Z,6.10
2019-01-06T04:07:58.391Z,6.10
2019-01-06T04:10:45.134Z,6.10
2019-01-06T04:13:36.675Z,6.10
2019-01-06T04:16:23.338Z,6.20
2019-01-06T04:19:14.418Z,6.10
2019-01-06T04:22:01.408Z,6.20
2019-01-06T04:24:57.143Z,6.20
2019-01-06T04:27:57.111Z,6.20
2019-01-06T04:30:45.099Z,6.10
2019-01-06T04:33:39.574Z,6.10
2019-01-06T04:36:41.086Z,6.20
2019-01-06T04:39:27.545Z,6.10
2019-01-06T04:42:14.054Z,6.10
2019-01-06T04:45:05.019Z,6.10
2019-01-06T04:47:51.439Z,6.10
2019-01-06T04:50:38.191Z,6.10
2019-01-06T04:53:24.900Z,6.10
2019-01-06T04:56:11.713Z,6.10
2019-01-06T04:59:00.804Z,6.20
2019-01-06T05:02:06.716Z,6.10
2019-01-06T05:04:53.146Z,6.20
2019-01-06T05:07:36.907Z,6.10
2019-01-06T05:10:23.552Z,6.10
2019-01-06T05:13:16.447Z,6.10
2019-01-06T05:16:03.163Z,6.10
2019-01-06T05:18:51.185Z,6.20
2019-01-06T05:21:48.228Z,6.20
2019-01-06T05:24:34.798Z,6.20
2019-01-06T05:27:21.494Z,6.10
2019-01-06T05:30:10.101Z,6.20
2019-01-06T05:32:58.114Z,6.10
2019-01-06T05:35:44.562Z,6.10
2019-01-06T05:38:47.840Z,6.10
2019-01-06T05:41:41.852Z,6.00
2019-01-06T05:44:28.867Z,6.10
2019-01-06T05:47:19.036Z,6.10
2019-01-06T05:50:07.158Z,6.10
2019-01-06T05:52:53.567Z,6.20
2019-01-06T05:55:34.124Z,6.10
2019-01-06T05:58:16.873Z,6.10
2019-01-06T06:01:04.937Z,6.10
2019-01-06T06:03:51.599Z,6.10
2019-01-06T06:06:47.477Z,6.00
2019-01-06T06:09:35.491Z,6.00
2019-01-06T06:12:28.822Z,6.00
2019-01-06T06:15:25.905Z,6.10
2019-01-06T06:18:12.442Z,6.10
2019-01-06T06:20:59.067Z,6.10
2019-01-06T06:23:39.434Z,6.00
2019-01-06T06:26:42.563Z,6.00
2019-01-06T06:29:29.014Z,6.00
2019-01-06T06:32:17.031Z,6.00
2019-01-06T06:35:00.954Z,6.00
2019-01-06T06:37:45.441Z,6.00
2019-01-06T06:40:32.266Z,6.00
2019-01-06T06:43:18.842Z,6.00
2019-01-06T06:46:10.614Z,6.00
2019-01-06T06:48:59.557Z,5.90
2019-01-06T06:51:47.038Z,6.00
2019-01-06T06:54:34.395Z,6.00
2019-01-06T06:57:55.761Z,6.00
2019-01-06T07:00:53.837Z,5.90
2019-01-06T07:03:46.479Z,5.90
2019-01-06T07:06:33.048Z,5.90
2019-01-06T07:09:20.988Z,5.90
2019-01-06T07:12:07.583Z,6.00
2019-01-06T07:14:55.616Z,5.90
2019-01-06T07:18:06.040Z,5.90
2019-01-06T07:21:09.188Z,5.90
2019-01-06T07:23:57.107Z,5.90
2019-01-06T07:27:03.410Z,5.80
2019-01-06T07:29:49.918Z,5.80
2019-01-06T07:32:40.846Z,5.80
2019-01-06T07:35:27.306Z,5.80
2019-01-06T07:38:28.693Z,5.80
2019-01-06T07:41:15.060Z,5.90
2019-01-06T07:44:12.014Z,5.80
2019-01-06T07:47:05.899Z,5.80
2019-01-06T07:50:03.097Z,5.80
2019-01-06T07:52:50.989Z,5.90
2019-01-06T07:55:31.554Z,5.80
2019-01-06T07:58:25.485Z,5.80
2019-01-06T08:01:11.762Z,5.80
2019-01-06T08:03:58.566Z,5.80
2019-01-06T08:06:45.192Z,5.80
2019-01-06T08:09:31.429Z,5.80
2019-01-06T08:12:22.358Z,5.80
2019-01-06T08:15:08.405Z,5.80
2019-01-06T08:17:54.988Z,5.90
2019-01-06T08:20:41.605Z,5.90
2019-01-06T08:23:18.653Z,5.90
2019-01-06T08:26:06.537Z,5.80
2019-01-06T08:28:57.313Z,5.90
2019-01-06T08:31:57.668Z,5.90
2019-01-06T08:35:03.704Z,5.90
2019-01-06T08:37:50.421Z,5.90
2019-01-06T08:40:45.291Z,5.90
2019-01-06T08:43:37.840Z,5.90
2019-01-06T08:46:24.628Z,5.80
2019-01-06T08:49:24.510Z,5.90
2019-01-06T08:52:21.851Z,5.90
2019-01-06T08:55:05.747Z,5.90
2019-01-06T08:57:52.220Z,5.90
2019-01-06T09:00:35.087Z,5.80
2019-01-06T09:03:31.163Z,5.80
2019-01-06T09:06:31.226Z,5.90
2019-01-06T09:09:14.442Z,5.90
2019-01-06T09:12:14.237Z,5.90
2019-01-06T09:15:00.655Z,5.90
2019-01-06T09:17:45.191Z,5.90
2019-01-06T09:20:32.051Z,5.90
2019-01-06T09:23:32.253Z,5.90
2019-01-06T09:26:31.971Z,5.90
2019-01-06T09:29:32.487Z,5.90
2019-01-06T09:32:23.343Z,5.90
2019-01-06T09:35:11.624Z,5.90
2019-01-06T09:38:02.853Z,5.80
2019-01-06T09:40:47.661Z,5.80
2019-01-06T09:43:39.265Z,5.80
2019-01-06T09:46:18.065Z,5.80
2019-01-06T09:49:23.934Z,5.80
2019-01-06T09:52:29.930Z,5.90
2019-01-06T09:55:15.788Z,5.90
2019-01-06T09:58:14.802Z,5.90
2019-01-06T10:01:04.175Z,6.00
2019-01-06T10:03:50.767Z,6.00
2019-01-06T10:06:41.812Z,6.00
2019-01-06T10:09:41.932Z,6.10
2019-01-06T10:12:32.704Z,6.10
2019-01-06T10:15:20.670Z,6.00
2019-01-06T10:18:17.509Z,6.00
2019-01-06T10:21:05.470Z,6.00
2019-01-06T10:23:59.293Z,6.10
2019-01-06T10:26:41.297Z,6.20
2019-01-06T10:29:41.442Z,6.20
2019-01-06T10:32:26.941Z,6.20
2019-01-06T10:35:23.850Z,6.30
2019-01-06T10:38:10.451Z,6.30
2019-01-06T10:40:47.466Z,6.20
2019-01-06T10:43:34.041Z,6.20
2019-01-06T10:46:20.675Z,6.20
2019-01-06T10:49:07.237Z,6.20
2019-01-06T10:52:06.397Z,6.20
2019-01-06T10:54:52.729Z,6.20
2019-01-06T10:57:59.141Z,6.20
2019-01-06T11:00:47.306Z,6.20
2019-01-06T11:03:33.658Z,6.20
2019-01-06T11:06:26.384Z,6.10
2019-01-06T11:09:32.548Z,6.20
2019-01-06T11:12:19.074Z,6.20
2019-01-06T11:15:07.061Z,6.20
2019-01-06T11:17:53.359Z,6.10
2019-01-06T11:20:53.478Z,6.10
2019-01-06T11:23:53.898Z,6.10
2019-01-06T11:26:45.201Z,5.80
2019-01-06T11:29:30.350Z,6.20
2019-01-06T11:32:33.179Z,6.10
2019-01-06T11:35:19.788Z,6.20
2019-01-06T11:38:06.657Z,6.30
2019-01-06T11:40:54.373Z,6.30
2019-01-06T11:43:43.133Z,6.30
2019-01-06T11:46:31.097Z,6.20
2019-01-06T11:49:27.802Z,6.20
2019-01-06T11:52:18.859Z,6.30
2019-01-06T11:55:15.643Z,6.20
2019-01-06T11:58:06.546Z,6.20
2019-01-06T12:00:52.968Z,6.30
2019-01-06T12:03:39.558Z,6.40
2019-01-06T12:06:26.211Z,6.40
2019-01-06T12:09:04.509Z,6.40
2019-01-06T12:12:02.329Z,6.50
2019-01-06T12:14:50.414Z,6.50
2019-01-06T12:17:41.191Z,6.50
2019-01-06T12:20:29.294Z,6.60
2019-01-06T12:23:11.281Z,6.60
2019-01-06T12:26:08.450Z,6.60
2019-01-06T12:28:56.109Z,6.60
2019-01-06T12:32:02.041Z,6.60
2019-01-06T12:34:58.890Z,6.60
2019-01-06T12:38:04.884Z,6.60
2019-01-06T12:40:52.951Z,6.60
2019-01-06T12:43:54.866Z,6.60
2019-01-06T12:46:41.159Z,6.60
2019-01-06T12:49:27.873Z,6.80
2019-01-06T12:52:14.633Z,6.70
2019-01-06T12:55:14.758Z,6.70
2019-01-06T12:58:17.777Z,6.80
2019-01-06T13:01:22.687Z,6.80
2019-01-06T13:04:15.546Z,6.80
2019-01-06T13:07:13.630Z,6.90
2019-01-06T13:10:01.729Z,6.90
2019-01-06T13:13:02.006Z,6.90
2019-01-06T13:16:01.847Z,7.00
2019-01-06T13:18:49.134Z,7.00
2019-01-06T13:21:32.715Z,6.90
2019-01-06T13:24:19.082Z,6.80
2019-01-06T13:27:19.260Z,6.90
2019-01-06T13:30:07.477Z,6.90
2019-01-06T13:32:53.903Z,6.90
2019-01-06T13:35:41.096Z,7.00
2019-01-06T13:38:29.196Z,6.90
2019-01-06T13:41:25.195Z,6.80
2019-01-06T13:44:28.193Z,6.90
2019-01-06T13:47:14.527Z,6.80
2019-01-06T13:50:04.397Z,6.80
2019-01-06T13:52:51.881Z,6.70
2019-01-06T13:55:38.283Z,6.80
2019-01-06T13:58:24.966Z,6.80
2019-01-06T14:01:19.001Z,6.70
2019-01-06T14:04:05.897Z,6.80
2019-01-06T14:06:52.518Z,6.80
2019-01-06T14:09:39.199Z,6.70
2019-01-06T14:12:42.467Z,6.70
2019-01-06T14:15:34.679Z,6.80
2019-01-06T14:18:17.615Z,6.80
2019-01-06T14:21:05.705Z,6.90
2019-01-06T14:23:52.539Z,6.90
2019-01-06T14:26:39.172Z,7.10
2019-01-06T14:29:27.151Z,7.10
2019-01-06T14:32:20.318Z,7.20
2019-01-06T14:35:23.588Z,7.20
2019-01-06T14:38:14.224Z,7.10
2019-01-06T14:41:01.563Z,7.00
2019-01-06T14:43:55.769Z,6.90
2019-01-06T14:46:44.035Z,6.90
2019-01-06T14:49:30.743Z,6.70
2019-01-06T14:52:12.173Z,6.70
2019-01-06T14:55:03.200Z,6.60
2019-01-06T14:57:49.486Z,6.60
2019-01-06T15:00:38.497Z,6.60
2019-01-06T15:03:25.035Z,6.70
2019-01-06T15:06:22.148Z,6.60
2019-01-06T15:09:23.522Z,6.60
2019-01-06T15:12:20.634Z,6.60
2019-01-06T15:15:14.537Z,6.60
2019-01-06T15:18:08.371Z,6.50
2019-01-06T15:20:55.199Z,6.50
2019-01-06T15:23:45.847Z,6.40
2019-01-06T15:26:52.129Z,6.50
2019-01-06T15:29:55.030Z,6.50
2019-01-06T15:32:39.177Z,6.60
2019-01-06T15:35:26.551Z,6.60
2019-01-06T15:38:15.921Z,6.70
2019-01-06T15:41:02.781Z,6.70
2019-01-06T15:43:49.680Z,6.70
2019-01-06T15:46:50.569Z,6.60
2019-01-06T15:49:50.946Z,6.60
2019-01-06T15:52:37.937Z,6.50
2019-01-06T15:55:26.099Z,6.50
2019-01-06T15:58:12.479Z,6.50
2019-01-06T16:01:02.965Z,6.50
2019-01-06T16:03:51.125Z,6.50
2019-01-06T16:06:37.848Z,6.50
2019-01-06T16:09:38.494Z,6.50
2019-01-06T16:12:26.963Z,6.60
2019-01-06T16:15:15.074Z,6.60
2019-01-06T16:18:18.710Z,6.70
2019-01-06T16:21:05.505Z,6.70
2019-01-06T16:23:54.026Z,6.70
2019-01-06T16:26:41.421Z,6.70
2019-01-06T16:29:28.079Z,6.70
2019-01-06T16:32:31.368Z,6.70
2019-01-06T16:35:24.944Z,6.80
2019-01-06T16:38:15.723Z,6.80
2019-01-06T16:41:16.328Z,6.90
2019-01-06T16:44:03.417Z,6.80
2019-01-06T16:46:57.568Z,6.80
2019-01-06T16:49:48.324Z,6.80
2019-01-06T16:52:39.289Z,6.70
2019-01-06T16:55:26.065Z,6.70
2019-01-06T16:58:12.746Z,6.70
2019-01-06T17:00:59.343Z,6.70
2019-01-06T17:03:45.819Z,6.60
2019-01-06T17:06:33.829Z,6.60
2019-01-06T17:09:20.270Z,6.60
2019-01-06T17:12:08.307Z,6.50
2019-01-06T17:14:50.479Z,6.60
2019-01-06T17:17:36.177Z,6.60
2019-01-06T17:20:16.046Z,6.70
2019-01-06T17:23:07.155Z,6.60
2019-01-06T17:25:53.718Z,6.60
2019-01-06T17:28:52.720Z,6.50
2019-01-06T17:31:39.502Z,6.50
2019-01-06T17:34:31.010Z,6.50
2019-01-06T17:37:29.126Z,6.50
2019-01-06T17:40:16.074Z,6.50
2019-01-06T17:43:13.264Z,6.40
2019-01-06T17:45:59.796Z,6.50
2019-01-06T17:48:37.303Z,6.60
2019-01-06T17:51:23.971Z,6.60
2019-01-06T17:54:30.185Z,6.50
2019-01-06T17:57:21.246Z,6.50
2019-01-06T18:00:15.141Z,6.60
2019-01-06T18:03:00.169Z,6.60
2019-01-06T18:06:00.251Z,6.50
2019-01-06T18:08:50.897Z,6.50
2019-01-06T18:11:50.992Z,6.50
2019-01-06T18:14:37.965Z,6.50
2019-01-06T18:17:38.142Z,6.50
2019-01-06T18:20:25.087Z,6.50
2019-01-06T18:23:22.317Z,6.40
2019-01-06T18:26:08.869Z,6.50
2019-01-06T18:29:00.039Z,6.40
2019-01-06T18:31:46.651Z,6.40
2019-01-06T18:34:33.479Z,6.40
2019-01-06T18:37:27.609Z,6.30
2019-01-06T18:40:14.179Z,6.40
2019-01-06T18:43:20.494Z,6.30
2019-01-06T18:46:08.430Z,6.40
2019-01-06T18:48:54.922Z,6.40
2019-01-06T18:51:37.087Z,6.40
2019-01-06T18:54:28.242Z,6.40
2019-01-06T18:57:29.626Z,6.40
2019-01-06T19:00:18.665Z,6.40
2019-01-06T19:03:25.044Z,6.30
2019-01-06T19:06:11.814Z,6.20
2019-01-06T19:08:57.572Z,6.20
2019-01-06T19:11:44.057Z,6.20
2019-01-06T19:14:26.755Z,6.30
2019-01-06T19:17:09.634Z,6.30
2019-01-06T19:19:58.641Z,6.20
2019-01-06T19:22:55.680Z,6.20
2019-01-06T19:25:55.967Z,6.20
2019-01-06T19:28:42.574Z,6.20
2019-01-06T19:31:30.594Z,6.20
2019-01-06T19:34:12.874Z,6.20
2019-01-06T19:36:59.827Z,6.20
2019-01-06T19:39:46.591Z,6.20
2019-01-06T19:42:33.308Z,6.20
2019-01-06T19:45:20.562Z,6.20
2019-01-06T19:48:08.734Z,6.20
2019-01-06T19:50:55.903Z,6.30
2019-01-06T19:53:44.386Z,6.30
2019-01-06T19:56:32.601Z,6.40
2019-01-06T19:59:19.049Z,6.40
2019-01-06T20:02:05.787Z,6.40
2019-01-06T20:04:51.129Z,6.40
2019-01-06T20:07:37.726Z,6.40
2019-01-06T20:10:24.813Z,6.30
2019-01-06T20:13:12.757Z,6.30
2019-01-06T20:15:59.615Z,6.30
2019-01-06T20:18:56.037Z,6.30
2019-01-06T20:21:41.507Z,6.40
2019-01-06T20:24:32.545Z,6.40
2019-01-06T20:27:16.473Z,6.40
2019-01-06T20:30:04.409Z,6.40
2019-01-06T20:32:51.265Z,6.30
2019-01-06T20:35:34.890Z,6.40
2019-01-06T20:38:25.797Z,6.40
2019-01-06T20:41:17.055Z,6.50
2019-01-06T20:44:01.542Z,6.60
2019-01-06T20:46:48.351Z,6.70
2019-01-06T20:49:36.565Z,6.70
2019-01-06T20:52:25.422Z,6.70
2019-01-06T20:55:16.295Z,6.70
2019-01-06T20:58:16.184Z,6.60
2019-01-06T21:01:02.891Z,6.60
2019-01-06T21:04:08.910Z,6.70
2019-01-06T21:06:57.030Z,6.60
2019-01-06T21:09:51.111Z,6.60
2019-01-06T21:12:37.555Z,6.60
2019-01-06T21:15:24.115Z,6.50
2019-01-06T21:18:10.823Z,6.40
2019-01-06T21:20:57.359Z,6.30
2019-01-06T21:23:45.262Z,6.20
2019-01-06T21:26:48.232Z,6.20
2019-01-06T21:29:28.722Z,6.10
2019-01-06T21:32:16.882Z,6.20
2019-01-06T21:35:04.883Z,6.20
2019-01-06T21:37:47.247Z,6.20
2019-01-06T21:40:44.287Z,6.30
2019-01-06T21:43:30.619Z,6.30
2019-01-06T21:46:17.714Z,6.30
2019-01-06T21:49:23.730Z,6.20
2019-01-06T21:52:10.244Z,6.10
2019-01-06T21:54:56.768Z,6.20
2019-01-06T21:57:45.489Z,6.30
2019-01-06T22:00:32.181Z,6.30
2019-01-06T22:03:19.073Z,6.20
2019-01-06T22:06:05.680Z,6.30
2019-01-06T22:09:11.750Z,6.20
2019-01-06T22:12:00.987Z,6.10
2019-01-06T22:14:47.306Z,6.10
2019-01-06T22:17:41.055Z,6.10
2019-01-06T22:20:33.290Z,6.10
2019-01-06T22:23:19.895Z,6.00
2019-01-06T22:25:56.442Z,6.00
2019-01-06T22:28:47.346Z,6.00
2019-01-06T22:31:33.665Z,6.00
2019-01-06T22:34:30.531Z,6.00
2019-01-06T22:37:16.855Z,6.10
2019-01-06T22:40:07.987Z,6.00
2019-01-06T22:42:47.462Z,6.00
2019-01-06T22:45:53.343Z,5.90
2019-01-06T22:48:37.967Z,6.00
2019-01-06T22:51:29.149Z,6.00
2019-01-06T22:54:15.896Z,6.00
2019-01-06T22:57:02.451Z,6.00
2019-01-06T22:59:49.126Z,6.10
2019-01-06T23:02:52.287Z,6.00
2019-01-06T23:05:36.814Z,5.90
2019-01-06T23:08:40.153Z,6.00
2019-01-06T23:11:22.976Z,5.90
2019-01-06T23:14:17.648Z,6.00
2019-01-06T23:17:19.566Z,6.00
2019-01-06T23:20:15.026Z,6.00
2019-01-06T23:23:01.713Z,6.00
2019-01-06T23:25:48.402Z,6.00
2019-01-06T23:28:33.434Z,6.00
2019-01-06T23:31:20.081Z,6.00
2019-01-06T23:34:06.923Z,6.00
2019-01-06T23:36:57.896Z,5.90
2019-01-06T23:39:51.126Z,5.90
2019-01-06T23:42:41.094Z,5.80
2019-01-06T23:45:25.505Z,5.90
2019-01-06T23:48:13.845Z,5.90
2019-01-06T23:51:08.311Z,5.90
2019-01-06T23:53:54.985Z,6.00
2019-01-06T23:56:42.907Z,6.00
2019-01-06T23:59:29.625Z,5.90
